sensor_id;sensor_type;location;lat;lon;timestamp;P1;durP1;ratioP1;P2;durP2;ratioP2
67164;SDS011;54093;50.014;19.984;2023-04-25T00:00:13;6.45;;;5.80;;
67164;SDS011;54093;50.014;19.984;2023-04-25T00:09:54;5.55;;;5.25;;
67164;SDS011;54093;50.014;19.984;2023-04-25T00:19:15;4.22;;;3.20;;
67164;SDS011;54093;50.014;19.984;2023-04-25T00:28:36;1.55;;;1.50;;
67164;SDS011;54093;50.014;19.984;2023-04-25T00:37:58;1.83;;;1.73;;
67164;SDS011;54093;50.014;19.984;2023-04-25T00:47:18;1.30;;;1.30;;
67164;SDS011;54093;50.014;19.984;2023-04-25T00:56:39;1.15;;;1.15;;
67164;SDS011;54093;50.014;19.984;2023-04-25T01:06:01;1.15;;;1.15;;
67164;SDS011;54093;50.014;19.984;2023-04-25T01:15:23;3.75;;;2.05;;
67164;SDS011;54093;50.014;19.984;2023-04-25T01:24:44;3.80;;;2.67;;
67164;SDS011;54093;50.014;19.984;2023-04-25T01:34:05;3.05;;;2.72;;
67164;SDS011;54093;50.014;19.984;2023-04-25T01:43:26;2.97;;;2.78;;
67164;SDS011;54093;50.014;19.984;2023-04-25T01:52:47;2.75;;;2.63;;
67164;SDS011;54093;50.014;19.984;2023-04-25T02:02:08;2.75;;;2.55;;
67164;SDS011;54093;50.014;19.984;2023-04-25T02:11:29;4.55;;;4.25;;
67164;SDS011;54093;50.014;19.984;2023-04-25T02:20:50;3.30;;;3.00;;
67164;SDS011;54093;50.014;19.984;2023-04-25T02:30:11;4.10;;;3.75;;
67164;SDS011;54093;50.014;19.984;2023-04-25T02:39:32;3.72;;;3.50;;
67164;SDS011;54093;50.014;19.984;2023-04-25T02:48:53;3.20;;;2.45;;
67164;SDS011;54093;50.014;19.984;2023-04-25T02:58:14;4.10;;;2.92;;
67164;SDS011;54093;50.014;19.984;2023-04-25T03:07:35;3.47;;;3.17;;
67164;SDS011;54093;50.014;19.984;2023-04-25T03:16:56;3.78;;;3.38;;
67164;SDS011;54093;50.014;19.984;2023-04-25T03:26:17;4.60;;;4.20;;
67164;SDS011;54093;50.014;19.984;2023-04-25T03:35:38;4.60;;;4.28;;
67164;SDS011;54093;50.014;19.984;2023-04-25T03:45:00;4.50;;;4.20;;
67164;SDS011;54093;50.014;19.984;2023-04-25T03:54:21;4.53;;;4.18;;
67164;SDS011;54093;50.014;19.984;2023-04-25T04:03:42;5.25;;;4.75;;
67164;SDS011;54093;50.014;19.984;2023-04-25T04:13:03;4.88;;;4.47;;
67164;SDS011;54093;50.014;19.984;2023-04-25T04:22:24;6.07;;;5.70;;
67164;SDS011;54093;50.014;19.984;2023-04-25T04:31:45;6.28;;;5.72;;
67164;SDS011;54093;50.014;19.984;2023-04-25T04:41:06;6.35;;;5.72;;
67164;SDS011;54093;50.014;19.984;2023-04-25T04:50:27;5.68;;;5.05;;
67164;SDS011;54093;50.014;19.984;2023-04-25T04:59:48;9.32;;;6.13;;
67164;SDS011;54093;50.014;19.984;2023-04-25T05:09:10;6.78;;;6.10;;
67164;SDS011;54093;50.014;19.984;2023-04-25T05:18:31;7.28;;;6.78;;
67164;SDS011;54093;50.014;19.984;2023-04-25T05:27:52;6.85;;;6.35;;
67164;SDS011;54093;50.014;19.984;2023-04-25T05:37:13;13.00;;;5.03;;
67164;SDS011;54093;50.014;19.984;2023-04-25T05:46:34;4.50;;;4.10;;
67164;SDS011;54093;50.014;19.984;2023-04-25T05:55:55;3.47;;;3.17;;
67164;SDS011;54093;50.014;19.984;2023-04-25T06:05:16;2.60;;;2.40;;
67164;SDS011;54093;50.014;19.984;2023-04-25T06:14:37;2.35;;;2.25;;
67164;SDS011;54093;50.014;19.984;2023-04-25T06:23:58;2.35;;;2.20;;
67164;SDS011;54093;50.014;19.984;2023-04-25T06:33:19;7.63;;;2.78;;
67164;SDS011;54093;50.014;19.984;2023-04-25T06:42:41;2.47;;;2.38;;
67164;SDS011;54093;50.014;19.984;2023-04-25T06:52:03;3.00;;;2.78;;
67164;SDS011;54093;50.014;19.984;2023-04-25T07:01:24;2.50;;;2.40;;
67164;SDS011;54093;50.014;19.984;2023-04-25T07:10:44;7.85;;;2.85;;
67164;SDS011;54093;50.014;19.984;2023-04-25T07:20:06;5.38;;;2.40;;
67164;SDS011;54093;50.014;19.984;2023-04-25T07:29:29;2.28;;;2.17;;
67164;SDS011;54093;50.014;19.984;2023-04-25T07:38:50;4.25;;;2.60;;
67164;SDS011;54093;50.014;19.984;2023-04-25T07:48:13;2.00;;;1.90;;
67164;SDS011;54093;50.014;19.984;2023-04-25T07:57:38;1.63;;;1.52;;
67164;SDS011;54093;50.014;19.984;2023-04-25T08:06:59;1.90;;;1.80;;
67164;SDS011;54093;50.014;19.984;2023-04-25T08:16:20;1.85;;;1.70;;
67164;SDS011;54093;50.014;19.984;2023-04-25T08:25:41;2.65;;;2.45;;
67164;SDS011;54093;50.014;19.984;2023-04-25T08:35:02;3.63;;;2.15;;
67164;SDS011;54093;50.014;19.984;2023-04-25T08:44:23;2.28;;;2.17;;
67164;SDS011;54093;50.014;19.984;2023-04-25T08:53:45;2.67;;;2.47;;
67164;SDS011;54093;50.014;19.984;2023-04-25T09:03:09;3.90;;;2.70;;
67164;SDS011;54093;50.014;19.984;2023-04-25T09:12:30;2.63;;;2.47;;
67164;SDS011;54093;50.014;19.984;2023-04-25T09:21:55;3.63;;;3.00;;
67164;SDS011;54093;50.014;19.984;2023-04-25T09:31:21;2.10;;;2.00;;
67164;SDS011;54093;50.014;19.984;2023-04-25T09:40:45;4.43;;;2.40;;
67164;SDS011;54093;50.014;19.984;2023-04-25T09:50:16;2.47;;;2.38;;
67164;SDS011;54093;50.014;19.984;2023-04-25T09:59:38;2.70;;;2.60;;
67164;SDS011;54093;50.014;19.984;2023-04-25T10:09:03;3.40;;;3.10;;
67164;SDS011;54093;50.014;19.984;2023-04-25T10:18:28;2.90;;;2.78;;
67164;SDS011;54093;50.014;19.984;2023-04-25T10:27:51;4.45;;;2.72;;
67164;SDS011;54093;50.014;19.984;2023-04-25T10:37:12;2.08;;;1.98;;
67164;SDS011;54093;50.014;19.984;2023-04-25T10:46:33;2.00;;;1.90;;
67164;SDS011;54093;50.014;19.984;2023-04-25T10:55:56;1.75;;;1.65;;
67164;SDS011;54093;50.014;19.984;2023-04-25T11:05:22;2.08;;;1.98;;
67164;SDS011;54093;50.014;19.984;2023-04-25T11:15:02;2.10;;;2.00;;
67164;SDS011;54093;50.014;19.984;2023-04-25T11:24:27;2.53;;;2.05;;
67164;SDS011;54093;50.014;19.984;2023-04-25T11:33:48;2.20;;;2.10;;
67164;SDS011;54093;50.014;19.984;2023-04-25T11:43:09;2.50;;;2.30;;
67164;SDS011;54093;50.014;19.984;2023-04-25T11:52:41;2.58;;;2.38;;
67164;SDS011;54093;50.014;19.984;2023-04-25T12:02:03;2.30;;;2.13;;
67164;SDS011;54093;50.014;19.984;2023-04-25T12:11:24;8.20;;;2.70;;
67164;SDS011;54093;50.014;19.984;2023-04-25T12:20:45;3.50;;;2.45;;
67164;SDS011;54093;50.014;19.984;2023-04-25T12:30:06;3.33;;;2.42;;
67164;SDS011;54093;50.014;19.984;2023-04-25T12:39:29;2.95;;;2.30;;
67164;SDS011;54093;50.014;19.984;2023-04-25T12:48:50;2.10;;;2.00;;
67164;SDS011;54093;50.014;19.984;2023-04-25T12:58:11;2.20;;;2.10;;
67164;SDS011;54093;50.014;19.984;2023-04-25T13:07:33;2.65;;;2.45;;
67164;SDS011;54093;50.014;19.984;2023-04-25T13:16:54;3.63;;;3.42;;
67164;SDS011;54093;50.014;19.984;2023-04-25T13:26:15;3.60;;;1.98;;
67164;SDS011;54093;50.014;19.984;2023-04-25T13:35:37;2.60;;;2.28;;
67164;SDS011;54093;50.014;19.984;2023-04-25T13:44:58;3.03;;;2.83;;
67164;SDS011;54093;50.014;19.984;2023-04-25T13:54:19;2.60;;;2.50;;
67164;SDS011;54093;50.014;19.984;2023-04-25T14:03:40;2.67;;;2.58;;
67164;SDS011;54093;50.014;19.984;2023-04-25T14:13:02;3.67;;;2.17;;
67164;SDS011;54093;50.014;19.984;2023-04-25T14:22:23;2.15;;;2.00;;
67164;SDS011;54093;50.014;19.984;2023-04-25T14:31:44;2.55;;;2.38;;
67164;SDS011;54093;50.014;19.984;2023-04-25T14:41:05;2.80;;;2.60;;
67164;SDS011;54093;50.014;19.984;2023-04-25T14:50:26;4.50;;;2.70;;
67164;SDS011;54093;50.014;19.984;2023-04-25T14:59:47;4.60;;;1.60;;
67164;SDS011;54093;50.014;19.984;2023-04-25T15:09:08;1.90;;;1.50;;
67164;SDS011;54093;50.014;19.984;2023-04-25T15:18:31;4.30;;;1.80;;
67164;SDS011;54093;50.014;19.984;2023-04-25T15:27:51;2.70;;;1.63;;
67164;SDS011;54093;50.014;19.984;2023-04-25T15:37:15;2.10;;;2.00;;
67164;SDS011;54093;50.014;19.984;2023-04-25T15:46:36;3.90;;;1.98;;
67164;SDS011;54093;50.014;19.984;2023-04-25T15:55:57;2.17;;;2.00;;
67164;SDS011;54093;50.014;19.984;2023-04-25T16:05:21;2.40;;;2.20;;
67164;SDS011;54093;50.014;19.984;2023-04-25T16:14:45;1.70;;;1.60;;
67164;SDS011;54093;50.014;19.984;2023-04-25T16:24:06;5.35;;;2.15;;
67164;SDS011;54093;50.014;19.984;2023-04-25T16:33:28;2.30;;;2.20;;
67164;SDS011;54093;50.014;19.984;2023-04-25T16:42:49;3.08;;;2.20;;
67164;SDS011;54093;50.014;19.984;2023-04-25T16:52:10;5.22;;;2.15;;
67164;SDS011;54093;50.014;19.984;2023-04-25T17:01:32;4.50;;;2.30;;
67164;SDS011;54093;50.014;19.984;2023-04-25T17:10:53;2.47;;;2.28;;
67164;SDS011;54093;50.014;19.984;2023-04-25T17:20:14;2.25;;;2.08;;
67164;SDS011;54093;50.014;19.984;2023-04-25T17:29:35;2.60;;;2.45;;
67164;SDS011;54093;50.014;19.984;2023-04-25T17:38:56;2.00;;;1.90;;
67164;SDS011;54093;50.014;19.984;2023-04-25T17:48:17;2.30;;;2.20;;
67164;SDS011;54093;50.014;19.984;2023-04-25T17:57:38;2.70;;;2.50;;
67164;SDS011;54093;50.014;19.984;2023-04-25T18:06:59;3.17;;;2.70;;
67164;SDS011;54093;50.014;19.984;2023-04-25T18:16:20;4.13;;;2.47;;
67164;SDS011;54093;50.014;19.984;2023-04-25T18:25:41;3.17;;;2.88;;
67164;SDS011;54093;50.014;19.984;2023-04-25T18:35:02;2.50;;;2.30;;
67164;SDS011;54093;50.014;19.984;2023-04-25T18:44:23;1.98;;;1.88;;
67164;SDS011;54093;50.014;19.984;2023-04-25T18:53:44;5.47;;;3.65;;
67164;SDS011;54093;50.014;19.984;2023-04-25T19:03:06;2.55;;;2.42;;
67164;SDS011;54093;50.014;19.984;2023-04-25T19:12:28;2.50;;;2.40;;
67164;SDS011;54093;50.014;19.984;2023-04-25T19:21:49;4.00;;;2.42;;
67164;SDS011;54093;50.014;19.984;2023-04-25T19:31:10;2.63;;;2.42;;
67164;SDS011;54093;50.014;19.984;2023-04-25T19:40:32;2.65;;;2.45;;
67164;SDS011;54093;50.014;19.984;2023-04-25T19:49:53;4.65;;;2.53;;
67164;SDS011;54093;50.014;19.984;2023-04-25T19:59:14;2.40;;;2.30;;
67164;SDS011;54093;50.014;19.984;2023-04-25T20:08:34;3.38;;;3.17;;
67164;SDS011;54093;50.014;19.984;2023-04-25T20:17:56;4.65;;;3.10;;
67164;SDS011;54093;50.014;19.984;2023-04-25T20:27:17;3.38;;;3.10;;
67164;SDS011;54093;50.014;19.984;2023-04-25T20:36:38;3.20;;;3.00;;
67164;SDS011;54093;50.014;19.984;2023-04-25T20:45:59;3.13;;;3.03;;
67164;SDS011;54093;50.014;19.984;2023-04-25T20:55:20;4.40;;;4.00;;
67164;SDS011;54093;50.014;19.984;2023-04-25T21:04:41;8.60;;;4.95;;
67164;SDS011;54093;50.014;19.984;2023-04-25T21:14:06;5.53;;;4.63;;
67164;SDS011;54093;50.014;19.984;2023-04-25T21:23:27;6.22;;;4.13;;
67164;SDS011;54093;50.014;19.984;2023-04-25T21:32:48;7.22;;;4.85;;
67164;SDS011;54093;50.014;19.984;2023-04-25T21:42:12;8.60;;;5.18;;
67164;SDS011;54093;50.014;19.984;2023-04-25T21:51:33;6.20;;;4.40;;
67164;SDS011;54093;50.014;19.984;2023-04-25T22:00:54;7.22;;;5.07;;
67164;SDS011;54093;50.014;19.984;2023-04-25T22:10:15;5.20;;;4.25;;
67164;SDS011;54093;50.014;19.984;2023-04-25T22:19:37;8.18;;;5.25;;
67164;SDS011;54093;50.014;19.984;2023-04-25T22:28:58;4.82;;;4.43;;
67164;SDS011;54093;50.014;19.984;2023-04-25T22:38:19;10.23;;;4.32;;
67164;SDS011;54093;50.014;19.984;2023-04-25T22:47:40;4.93;;;3.20;;
67164;SDS011;54093;50.014;19.984;2023-04-25T22:57:01;5.05;;;3.40;;
67164;SDS011;54093;50.014;19.984;2023-04-25T23:06:26;3.67;;;3.38;;
67164;SDS011;54093;50.014;19.984;2023-04-25T23:15:47;5.93;;;2.83;;
67164;SDS011;54093;50.014;19.984;2023-04-25T23:25:08;5.18;;;2.33;;
67164;SDS011;54093;50.014;19.984;2023-04-25T23:34:29;5.47;;;2.28;;
67164;SDS011;54093;50.014;19.984;2023-04-25T23:43:51;8.00;;;2.05;;
67164;SDS011;54093;50.014;19.984;2023-04-25T23:53:12;6.22;;;2.78;;
